GIA503 WIII-WIOO
Flight info
| Callsign | GIA503 |
|---|---|
| Flight time | 1h 6m |
| Altitude | 35000 |
| Route | ABASA W14 LAKUN |
| Aircraft | B738/M-SDE2E3FGHIRWXY/LB1 |
Departure
| Time | 2026-05-06 06:34 |
|---|---|
| Airport | Soekarno-Hatta International Airport (WIII) |
Arrival
| Time | 2026-05-06 07:41 |
|---|---|
| Airport | Supadio International Airport (WIOO) |
| Time | Latitude | Longitude | Altitude | Speed | Heading |
|---|---|---|---|---|---|
| 2026-05-06 06:06 | -6.11697 | 106.66601 | 36 ft | 0 kts | 160° |
| 2026-05-06 06:17 | -6.11692 | 106.66599 | 36 ft | 4 kts | 160° |
| 2026-05-06 06:17 | -6.11666 | 106.66590 | 36 ft | 4 kts | 160° |
| 2026-05-06 06:17 | -6.11640 | 106.66581 | 37 ft | 4 kts | 163° |
| 2026-05-06 06:18 | -6.11614 | 106.66575 | 37 ft | 4 kts | 177° |
| 2026-05-06 06:18 | -6.11592 | 106.66579 | 37 ft | 4 kts | 236° |
| 2026-05-06 06:18 | -6.11589 | 106.66582 | 37 ft | 0 kts | 249° |
| 2026-05-06 06:24 | -6.11592 | 106.66577 | 37 ft | 3 kts | 249° |
| 2026-05-06 06:24 | -6.11608 | 106.66533 | 37 ft | 8 kts | 249° |
| 2026-05-06 06:24 | -6.11635 | 106.66467 | 37 ft | 13 kts | 248° |
| 2026-05-06 06:24 | -6.11611 | 106.66393 | 37 ft | 12 kts | 333° |
| 2026-05-06 06:25 | -6.11534 | 106.66362 | 34 ft | 12 kts | 339° |
| 2026-05-06 06:25 | -6.11460 | 106.66332 | 37 ft | 11 kts | 337° |
| 2026-05-06 06:25 | -6.11348 | 106.66248 | 37 ft | 11 kts | 263° |
| 2026-05-06 06:26 | -6.11372 | 106.66178 | 35 ft | 11 kts | 247° |
| 2026-05-06 06:26 | -6.11401 | 106.66106 | 36 ft | 12 kts | 248° |
| 2026-05-06 06:26 | -6.11435 | 106.66022 | 36 ft | 14 kts | 248° |
| 2026-05-06 06:26 | -6.11472 | 106.65927 | 34 ft | 16 kts | 248° |
| 2026-05-06 06:27 | -6.11518 | 106.65814 | 36 ft | 19 kts | 248° |
| 2026-05-06 06:27 | -6.11567 | 106.65689 | 36 ft | 19 kts | 248° |
| 2026-05-06 06:27 | -6.11615 | 106.65568 | 34 ft | 18 kts | 248° |
| 2026-05-06 06:27 | -6.11662 | 106.65451 | 35 ft | 18 kts | 248° |
| 2026-05-06 06:28 | -6.11707 | 106.65338 | 37 ft | 17 kts | 248° |
| 2026-05-06 06:28 | -6.11750 | 106.65229 | 37 ft | 16 kts | 248° |
| 2026-05-06 06:28 | -6.11791 | 106.65125 | 35 ft | 16 kts | 247° |
| 2026-05-06 06:28 | -6.11832 | 106.65025 | 36 ft | 15 kts | 248° |
| 2026-05-06 06:29 | -6.11870 | 106.64928 | 37 ft | 15 kts | 248° |
| 2026-05-06 06:29 | -6.11907 | 106.64835 | 37 ft | 14 kts | 248° |
| 2026-05-06 06:29 | -6.11942 | 106.64746 | 37 ft | 13 kts | 248° |
| 2026-05-06 06:29 | -6.11976 | 106.64662 | 36 ft | 13 kts | 248° |
| 2026-05-06 06:30 | -6.12010 | 106.64579 | 36 ft | 13 kts | 248° |
| 2026-05-06 06:30 | -6.12049 | 106.64478 | 37 ft | 19 kts | 249° |
| 2026-05-06 06:30 | -6.12107 | 106.64335 | 35 ft | 25 kts | 248° |
| 2026-05-06 06:30 | -6.12170 | 106.64177 | 37 ft | 22 kts | 248° |
| 2026-05-06 06:31 | -6.12219 | 106.64055 | 37 ft | 18 kts | 248° |
| 2026-05-06 06:31 | -6.12255 | 106.63946 | 37 ft | 15 kts | 267° |
| 2026-05-06 06:31 | -6.12222 | 106.63891 | 38 ft | 0 kts | 329° |
| 2026-05-06 06:33 | -6.12216 | 106.63888 | 38 ft | 3 kts | 329° |
| 2026-05-06 06:33 | -6.12172 | 106.63879 | 38 ft | 11 kts | 6° |
| 2026-05-06 06:33 | -6.12088 | 106.63914 | 37 ft | 14 kts | 36° |
| 2026-05-06 06:33 | -6.12043 | 106.64005 | 35 ft | 18 kts | 69° |
| 2026-05-06 06:34 | -6.11914 | 106.64329 | 33 ft | 91 kts | 68° |
| 2026-05-06 06:34 | -6.11579 | 106.65160 | 53 ft | 161 kts | 67° |
| 2026-05-06 06:34 | -6.11123 | 106.66294 | 571 ft | 189 kts | 66° |
| 2026-05-06 06:34 | -6.10599 | 106.67565 | 1452 ft | 196 kts | 66° |
| 2026-05-06 06:35 | -6.10158 | 106.68768 | 2887 ft | 171 kts | 74° |
| 2026-05-06 06:35 | -6.09942 | 106.69895 | 3830 ft | 168 kts | 73° |
| 2026-05-06 06:35 | -6.09294 | 106.71036 | 4008 ft | 207 kts | 47° |
| 2026-05-06 06:35 | -6.08006 | 106.71870 | 4217 ft | 233 kts | 31° |
| 2026-05-06 06:36 | -6.06570 | 106.72732 | 4589 ft | 246 kts | 30° |
| 2026-05-06 06:36 | -6.04974 | 106.73406 | 5140 ft | 251 kts | 22° |
| 2026-05-06 06:36 | -6.03314 | 106.73985 | 5727 ft | 253 kts | 21° |
| 2026-05-06 06:36 | -6.01630 | 106.74557 | 6288 ft | 258 kts | 21° |
| 2026-05-06 06:37 | -5.99888 | 106.75150 | 6636 ft | 273 kts | 21° |
| 2026-05-06 06:37 | -5.98076 | 106.75775 | 7135 ft | 284 kts | 21° |
| 2026-05-06 06:37 | -5.96197 | 106.76427 | 7938 ft | 286 kts | 21° |
| 2026-05-06 06:37 | -5.94312 | 106.77089 | 8756 ft | 288 kts | 21° |
| 2026-05-06 06:38 | -5.92412 | 106.77762 | 9500 ft | 291 kts | 21° |
| 2026-05-06 06:38 | -5.90489 | 106.78447 | 10199 ft | 296 kts | 21° |
| 2026-05-06 06:38 | -5.88482 | 106.79166 | 10475 ft | 318 kts | 21° |
| 2026-05-06 06:38 | -5.86331 | 106.79939 | 10666 ft | 339 kts | 21° |
| 2026-05-06 06:39 | -5.84071 | 106.80751 | 11110 ft | 349 kts | 21° |
| 2026-05-06 06:39 | -5.81769 | 106.81577 | 11740 ft | 353 kts | 21° |
| 2026-05-06 06:39 | -5.79438 | 106.82414 | 12379 ft | 357 kts | 21° |
| 2026-05-06 06:39 | -5.77089 | 106.83259 | 13034 ft | 360 kts | 21° |
| 2026-05-06 06:40 | -5.74726 | 106.84110 | 13704 ft | 362 kts | 21° |
| 2026-05-06 06:40 | -5.72349 | 106.84966 | 14347 ft | 364 kts | 21° |
| 2026-05-06 06:40 | -5.69949 | 106.85831 | 14948 ft | 368 kts | 21° |
| 2026-05-06 06:40 | -5.67525 | 106.86704 | 15559 ft | 370 kts | 20° |
| 2026-05-06 06:41 | -5.65090 | 106.87581 | 16143 ft | 373 kts | 20° |
| 2026-05-06 06:41 | -5.62644 | 106.88462 | 16709 ft | 375 kts | 20° |
| 2026-05-06 06:41 | -5.60170 | 106.89354 | 17222 ft | 379 kts | 20° |
| 2026-05-06 06:41 | -5.57681 | 106.90250 | 17783 ft | 381 kts | 20° |
| 2026-05-06 06:42 | -5.55175 | 106.91152 | 18352 ft | 383 kts | 20° |
| 2026-05-06 06:42 | -5.52651 | 106.92060 | 18855 ft | 386 kts | 20° |
| 2026-05-06 06:42 | -5.50113 | 106.92974 | 19322 ft | 390 kts | 20° |
| 2026-05-06 06:42 | -5.47552 | 106.93897 | 19789 ft | 393 kts | 20° |
| 2026-05-06 06:43 | -5.44970 | 106.94827 | 20237 ft | 396 kts | 21° |
| 2026-05-06 06:43 | -5.42370 | 106.95764 | 20689 ft | 398 kts | 20° |
| 2026-05-06 06:43 | -5.39757 | 106.96704 | 21098 ft | 401 kts | 20° |
| 2026-05-06 06:43 | -5.37157 | 106.97640 | 21490 ft | 404 kts | 21° |
| 2026-05-06 06:44 | -5.34504 | 106.98594 | 21911 ft | 406 kts | 21° |
| 2026-05-06 06:44 | -5.31836 | 106.99554 | 22288 ft | 409 kts | 21° |
| 2026-05-06 06:44 | -5.29155 | 107.00520 | 22681 ft | 411 kts | 21° |
| 2026-05-06 06:44 | -5.26455 | 107.01491 | 23011 ft | 413 kts | 21° |
| 2026-05-06 06:45 | -5.23740 | 107.02468 | 23329 ft | 416 kts | 21° |
| 2026-05-06 06:45 | -5.21004 | 107.03452 | 23647 ft | 419 kts | 21° |
| 2026-05-06 06:45 | -5.18251 | 107.04442 | 23993 ft | 420 kts | 21° |
| 2026-05-06 06:45 | -5.15491 | 107.05435 | 24316 ft | 422 kts | 21° |
| 2026-05-06 06:46 | -5.12719 | 107.06431 | 24626 ft | 425 kts | 21° |
| 2026-05-06 06:46 | -5.09926 | 107.07436 | 24939 ft | 427 kts | 21° |
| 2026-05-06 06:46 | -5.07119 | 107.08446 | 25226 ft | 429 kts | 21° |
| 2026-05-06 06:46 | -5.04301 | 107.09459 | 25518 ft | 431 kts | 21° |
| 2026-05-06 06:47 | -5.01474 | 107.10475 | 25810 ft | 433 kts | 21° |
| 2026-05-06 06:47 | -4.98630 | 107.11497 | 26090 ft | 435 kts | 21° |
| 2026-05-06 06:47 | -4.95776 | 107.12522 | 26366 ft | 437 kts | 21° |
| 2026-05-06 06:47 | -4.92910 | 107.13552 | 26624 ft | 439 kts | 21° |
| 2026-05-06 06:48 | -4.90058 | 107.14577 | 26900 ft | 440 kts | 21° |
| 2026-05-06 06:48 | -4.87130 | 107.15629 | 27163 ft | 442 kts | 21° |
| 2026-05-06 06:48 | -4.84264 | 107.16659 | 27391 ft | 445 kts | 21° |
| 2026-05-06 06:48 | -4.81341 | 107.17710 | 27651 ft | 446 kts | 21° |
| 2026-05-06 06:49 | -4.78409 | 107.18763 | 27892 ft | 448 kts | 21° |
| 2026-05-06 06:49 | -4.75470 | 107.19819 | 28132 ft | 450 kts | 21° |
| 2026-05-06 06:49 | -4.72520 | 107.20878 | 28379 ft | 451 kts | 21° |
| 2026-05-06 06:49 | -4.69564 | 107.21939 | 28608 ft | 453 kts | 21° |
| 2026-05-06 06:50 | -4.66588 | 107.23008 | 28838 ft | 455 kts | 21° |
| 2026-05-06 06:50 | -4.63601 | 107.24080 | 29064 ft | 456 kts | 21° |
| 2026-05-06 06:50 | -4.60609 | 107.25155 | 29254 ft | 458 kts | 21° |
| 2026-05-06 06:50 | -4.57599 | 107.26236 | 29468 ft | 460 kts | 21° |
| 2026-05-06 06:51 | -4.54577 | 107.27321 | 29688 ft | 461 kts | 21° |
| 2026-05-06 06:51 | -4.51554 | 107.28406 | 29883 ft | 463 kts | 21° |
| 2026-05-06 06:51 | -4.48517 | 107.29496 | 30075 ft | 465 kts | 21° |
| 2026-05-06 06:51 | -4.45462 | 107.30592 | 30267 ft | 466 kts | 21° |
| 2026-05-06 06:52 | -4.42404 | 107.31689 | 30450 ft | 468 kts | 21° |
| 2026-05-06 06:52 | -4.39336 | 107.32790 | 30635 ft | 470 kts | 21° |
| 2026-05-06 06:52 | -4.36250 | 107.33896 | 30839 ft | 471 kts | 21° |
| 2026-05-06 06:52 | -4.33164 | 107.35004 | 31088 ft | 471 kts | 21° |
| 2026-05-06 06:53 | -4.30086 | 107.36108 | 31360 ft | 470 kts | 21° |
| 2026-05-06 06:53 | -4.27007 | 107.37213 | 31624 ft | 469 kts | 21° |
| 2026-05-06 06:53 | -4.23935 | 107.38316 | 31862 ft | 469 kts | 21° |
| 2026-05-06 06:53 | -4.20861 | 107.39418 | 32108 ft | 469 kts | 21° |
| 2026-05-06 06:54 | -4.17793 | 107.40518 | 32378 ft | 468 kts | 21° |
| 2026-05-06 06:54 | -4.14729 | 107.41616 | 32646 ft | 467 kts | 21° |
| 2026-05-06 06:54 | -4.11664 | 107.42715 | 32886 ft | 467 kts | 21° |
| 2026-05-06 06:54 | -4.08643 | 107.43797 | 33138 ft | 467 kts | 21° |
| 2026-05-06 06:55 | -4.05589 | 107.44892 | 33404 ft | 466 kts | 21° |
| 2026-05-06 06:55 | -4.02535 | 107.45987 | 33687 ft | 465 kts | 21° |
| 2026-05-06 06:55 | -3.99490 | 107.47079 | 33938 ft | 465 kts | 20° |
| 2026-05-06 06:55 | -3.96441 | 107.48171 | 34187 ft | 465 kts | 21° |
| 2026-05-06 06:56 | -3.93403 | 107.49260 | 34449 ft | 464 kts | 21° |
| 2026-05-06 06:56 | -3.90367 | 107.50347 | 34706 ft | 463 kts | 21° |
| 2026-05-06 06:56 | -3.87334 | 107.51435 | 34803 ft | 465 kts | 21° |
| 2026-05-06 06:57 | -3.82257 | 107.53254 | 34803 ft | 465 kts | 21° |
| 2026-05-06 06:57 | -3.75153 | 107.55798 | 34808 ft | 462 kts | 21° |
| 2026-05-06 06:58 | -3.70135 | 107.57593 | 34801 ft | 460 kts | 21° |
| 2026-05-06 06:58 | -3.64121 | 107.59748 | 34811 ft | 458 kts | 21° |
| 2026-05-06 06:59 | -3.58131 | 107.61892 | 34810 ft | 457 kts | 21° |
| 2026-05-06 06:59 | -3.52137 | 107.64040 | 34813 ft | 457 kts | 21° |
| 2026-05-06 07:00 | -3.46136 | 107.66189 | 34810 ft | 459 kts | 20° |
| 2026-05-06 07:00 | -3.40106 | 107.68347 | 34815 ft | 461 kts | 20° |
| 2026-05-06 07:01 | -3.34102 | 107.70497 | 34810 ft | 462 kts | 20° |
| 2026-05-06 07:01 | -3.28034 | 107.72669 | 34808 ft | 464 kts | 20° |
| 2026-05-06 07:02 | -3.21940 | 107.74849 | 34799 ft | 466 kts | 20° |
| 2026-05-06 07:02 | -3.15823 | 107.77037 | 34810 ft | 467 kts | 20° |
| 2026-05-06 07:03 | -3.09699 | 107.79226 | 34800 ft | 467 kts | 20° |
| 2026-05-06 07:03 | -3.03592 | 107.81410 | 34810 ft | 466 kts | 20° |
| 2026-05-06 07:04 | -2.97490 | 107.83591 | 34798 ft | 465 kts | 20° |
| 2026-05-06 07:04 | -2.91405 | 107.85767 | 34809 ft | 464 kts | 20° |
| 2026-05-06 07:05 | -2.85329 | 107.87942 | 34805 ft | 463 kts | 20° |
| 2026-05-06 07:05 | -2.79270 | 107.90107 | 34821 ft | 462 kts | 20° |
| 2026-05-06 07:06 | -2.73213 | 107.92271 | 34815 ft | 461 kts | 20° |
| 2026-05-06 07:06 | -2.67171 | 107.94429 | 34821 ft | 461 kts | 20° |
| 2026-05-06 07:07 | -2.61134 | 107.96587 | 34807 ft | 460 kts | 20° |
| 2026-05-06 07:07 | -2.55099 | 107.98743 | 34806 ft | 461 kts | 20° |
| 2026-05-06 07:08 | -2.49056 | 108.00901 | 34824 ft | 461 kts | 20° |
| 2026-05-06 07:08 | -2.43010 | 108.03062 | 34815 ft | 462 kts | 20° |
| 2026-05-06 07:09 | -2.36955 | 108.05226 | 34816 ft | 462 kts | 20° |
| 2026-05-06 07:09 | -2.30935 | 108.07376 | 34816 ft | 462 kts | 20° |
| 2026-05-06 07:10 | -2.24835 | 108.09555 | 34815 ft | 463 kts | 20° |
| 2026-05-06 07:10 | -2.18814 | 108.11707 | 34819 ft | 463 kts | 20° |
| 2026-05-06 07:11 | -2.12739 | 108.13878 | 34816 ft | 463 kts | 20° |
| 2026-05-06 07:11 | -2.06666 | 108.16046 | 34809 ft | 464 kts | 20° |
| 2026-05-06 07:12 | -2.00934 | 108.18934 | 34813 ft | 462 kts | 32° |
| 2026-05-06 07:12 | -1.95517 | 108.22390 | 34808 ft | 462 kts | 33° |
| 2026-05-06 07:13 | -1.90095 | 108.25841 | 34808 ft | 462 kts | 33° |
| 2026-05-06 07:13 | -1.84635 | 108.29231 | 34808 ft | 462 kts | 32° |
| 2026-05-06 07:14 | -1.79149 | 108.32596 | 34810 ft | 462 kts | 32° |
| 2026-05-06 07:14 | -1.73667 | 108.35950 | 34807 ft | 462 kts | 32° |
| 2026-05-06 07:15 | -1.68196 | 108.39299 | 34807 ft | 461 kts | 32° |
| 2026-05-06 07:15 | -1.62728 | 108.42650 | 34787 ft | 461 kts | 32° |
| 2026-05-06 07:15 | -1.59970 | 108.44341 | 34246 ft | 466 kts | 32° |
| 2026-05-06 07:16 | -1.57228 | 108.46020 | 33851 ft | 459 kts | 32° |
| 2026-05-06 07:16 | -1.54569 | 108.47648 | 33362 ft | 448 kts | 32° |
| 2026-05-06 07:16 | -1.51910 | 108.49277 | 32910 ft | 437 kts | 32° |
| 2026-05-06 07:16 | -1.49348 | 108.50846 | 32461 ft | 427 kts | 32° |
| 2026-05-06 07:17 | -1.46844 | 108.52380 | 32035 ft | 417 kts | 32° |
| 2026-05-06 07:17 | -1.44396 | 108.53880 | 31618 ft | 408 kts | 33° |
| 2026-05-06 07:17 | -1.42036 | 108.55326 | 31218 ft | 399 kts | 33° |
| 2026-05-06 07:17 | -1.39698 | 108.56759 | 30820 ft | 390 kts | 33° |
| 2026-05-06 07:18 | -1.37381 | 108.58178 | 30429 ft | 382 kts | 33° |
| 2026-05-06 07:18 | -1.35123 | 108.59562 | 30062 ft | 381 kts | 33° |
| 2026-05-06 07:18 | -1.32854 | 108.60954 | 29693 ft | 384 kts | 33° |
| 2026-05-06 07:18 | -1.30600 | 108.62336 | 29304 ft | 385 kts | 33° |
| 2026-05-06 07:19 | -1.28322 | 108.63732 | 28897 ft | 382 kts | 33° |
| 2026-05-06 07:19 | -1.26062 | 108.65115 | 28483 ft | 380 kts | 33° |
| 2026-05-06 07:19 | -1.23816 | 108.66491 | 28086 ft | 377 kts | 33° |
| 2026-05-06 07:19 | -1.21585 | 108.67859 | 27686 ft | 375 kts | 33° |
| 2026-05-06 07:20 | -1.19366 | 108.69218 | 27283 ft | 373 kts | 33° |
| 2026-05-06 07:20 | -1.17159 | 108.70570 | 26889 ft | 371 kts | 33° |
| 2026-05-06 07:20 | -1.14964 | 108.71914 | 26491 ft | 369 kts | 33° |
| 2026-05-06 07:20 | -1.12779 | 108.73252 | 26098 ft | 367 kts | 33° |
| 2026-05-06 07:21 | -1.10611 | 108.74580 | 25707 ft | 365 kts | 33° |
| 2026-05-06 07:21 | -1.08456 | 108.75899 | 25316 ft | 362 kts | 33° |
| 2026-05-06 07:21 | -1.06312 | 108.77213 | 24931 ft | 360 kts | 33° |
| 2026-05-06 07:21 | -1.04182 | 108.78518 | 24544 ft | 358 kts | 33° |
| 2026-05-06 07:22 | -1.02068 | 108.79813 | 24166 ft | 355 kts | 33° |
| 2026-05-06 07:22 | -0.99967 | 108.81101 | 23783 ft | 353 kts | 33° |
| 2026-05-06 07:22 | -0.97874 | 108.82383 | 23406 ft | 351 kts | 33° |
| 2026-05-06 07:22 | -0.95795 | 108.83656 | 23031 ft | 349 kts | 33° |
| 2026-05-06 07:23 | -0.93730 | 108.84921 | 22652 ft | 347 kts | 33° |
| 2026-05-06 07:23 | -0.91677 | 108.86179 | 22275 ft | 345 kts | 32° |
| 2026-05-06 07:23 | -0.89639 | 108.87427 | 21907 ft | 343 kts | 32° |
| 2026-05-06 07:23 | -0.87611 | 108.88659 | 21535 ft | 340 kts | 30° |
| 2026-05-06 07:24 | -0.85477 | 108.89661 | 21212 ft | 337 kts | 23° |
| 2026-05-06 07:24 | -0.83284 | 108.90477 | 20849 ft | 336 kts | 21° |
| 2026-05-06 07:24 | -0.81085 | 108.91242 | 20490 ft | 334 kts | 20° |
| 2026-05-06 07:24 | -0.78896 | 108.92000 | 20124 ft | 332 kts | 20° |
| 2026-05-06 07:25 | -0.76715 | 108.92768 | 19770 ft | 330 kts | 21° |
| 2026-05-06 07:25 | -0.74586 | 108.93528 | 19413 ft | 329 kts | 21° |
| 2026-05-06 07:25 | -0.72442 | 108.94304 | 19055 ft | 327 kts | 21° |
| 2026-05-06 07:25 | -0.70313 | 108.95080 | 18695 ft | 325 kts | 21° |
| 2026-05-06 07:26 | -0.68199 | 108.95855 | 18345 ft | 323 kts | 21° |
| 2026-05-06 07:26 | -0.66097 | 108.96630 | 17991 ft | 320 kts | 21° |
| 2026-05-06 07:26 | -0.64013 | 108.97398 | 17633 ft | 319 kts | 21° |
| 2026-05-06 07:26 | -0.61938 | 108.98162 | 17284 ft | 317 kts | 21° |
| 2026-05-06 07:27 | -0.59870 | 108.98925 | 16937 ft | 315 kts | 21° |
| 2026-05-06 07:27 | -0.57821 | 108.99680 | 16594 ft | 314 kts | 21° |
| 2026-05-06 07:27 | -0.55777 | 109.00433 | 16248 ft | 313 kts | 21° |
| 2026-05-06 07:27 | -0.53736 | 109.01186 | 15894 ft | 312 kts | 21° |
| 2026-05-06 07:28 | -0.51707 | 109.01935 | 15544 ft | 310 kts | 21° |
| 2026-05-06 07:28 | -0.49678 | 109.02684 | 15209 ft | 309 kts | 21° |
| 2026-05-06 07:28 | -0.45651 | 109.04170 | 14526 ft | 308 kts | 21° |
| 2026-05-06 07:29 | -0.43646 | 109.04911 | 14180 ft | 307 kts | 21° |
| 2026-05-06 07:29 | -0.41640 | 109.05651 | 13834 ft | 306 kts | 21° |
| 2026-05-06 07:29 | -0.39647 | 109.06386 | 13494 ft | 305 kts | 20° |
| 2026-05-06 07:29 | -0.37684 | 109.07110 | 13156 ft | 304 kts | 20° |
| 2026-05-06 07:30 | -0.35702 | 109.07842 | 12816 ft | 303 kts | 20° |
| 2026-05-06 07:30 | -0.33704 | 109.08579 | 12474 ft | 302 kts | 20° |
| 2026-05-06 07:30 | -0.31761 | 109.09296 | 12135 ft | 301 kts | 20° |
| 2026-05-06 07:30 | -0.29802 | 109.10019 | 11798 ft | 299 kts | 20° |
| 2026-05-06 07:31 | -0.27858 | 109.10737 | 11524 ft | 296 kts | 20° |
| 2026-05-06 07:31 | -0.25948 | 109.11441 | 11320 ft | 291 kts | 20° |
| 2026-05-06 07:31 | -0.24056 | 109.12139 | 11123 ft | 287 kts | 20° |
| 2026-05-06 07:31 | -0.22178 | 109.12828 | 10990 ft | 291 kts | 19° |
| 2026-05-06 07:32 | -0.20192 | 109.13324 | 10605 ft | 297 kts | 9° |
| 2026-05-06 07:32 | -0.18155 | 109.13631 | 10243 ft | 296 kts | 8° |
| 2026-05-06 07:32 | -0.16120 | 109.13910 | 9860 ft | 294 kts | 8° |
| 2026-05-06 07:32 | -0.14103 | 109.14197 | 9483 ft | 290 kts | 8° |
| 2026-05-06 07:33 | -0.12125 | 109.14491 | 9111 ft | 285 kts | 8° |
| 2026-05-06 07:33 | -0.10175 | 109.14792 | 8758 ft | 282 kts | 9° |
| 2026-05-06 07:33 | -0.08240 | 109.15097 | 8393 ft | 281 kts | 9° |
| 2026-05-06 07:33 | -0.06314 | 109.15404 | 8035 ft | 279 kts | 9° |
| 2026-05-06 07:34 | -0.04400 | 109.15711 | 7676 ft | 278 kts | 9° |
| 2026-05-06 07:34 | -0.02494 | 109.16017 | 7325 ft | 276 kts | 10° |
| 2026-05-06 07:34 | -0.00716 | 109.16681 | 6942 ft | 274 kts | 37° |
| 2026-05-06 07:34 | 0.00524 | 109.18095 | 6621 ft | 271 kts | 62° |
| 2026-05-06 07:35 | 0.01278 | 109.19813 | 6290 ft | 269 kts | 69° |
| 2026-05-06 07:35 | 0.01952 | 109.21554 | 5932 ft | 269 kts | 69° |
| 2026-05-06 07:35 | 0.02627 | 109.23296 | 5593 ft | 269 kts | 69° |
| 2026-05-06 07:35 | 0.03313 | 109.25032 | 5242 ft | 268 kts | 68° |
| 2026-05-06 07:36 | 0.04003 | 109.26754 | 4893 ft | 267 kts | 68° |
| 2026-05-06 07:36 | 0.04683 | 109.28451 | 4552 ft | 260 kts | 68° |
| 2026-05-06 07:36 | 0.05170 | 109.30171 | 4076 ft | 258 kts | 91° |
| 2026-05-06 07:36 | 0.04659 | 109.31803 | 3905 ft | 243 kts | 128° |
| 2026-05-06 07:37 | 0.03378 | 109.32825 | 3670 ft | 234 kts | 153° |
| 2026-05-06 07:37 | 0.01901 | 109.33473 | 3366 ft | 229 kts | 159° |
| 2026-05-06 07:37 | 0.00448 | 109.34043 | 3058 ft | 225 kts | 158° |
| 2026-05-06 07:37 | -0.00987 | 109.34620 | 2788 ft | 218 kts | 158° |
| 2026-05-06 07:38 | -0.02370 | 109.35186 | 2485 ft | 212 kts | 158° |
| 2026-05-06 07:38 | -0.03711 | 109.35736 | 2201 ft | 205 kts | 158° |
| 2026-05-06 07:38 | -0.05016 | 109.36271 | 1928 ft | 199 kts | 158° |
| 2026-05-06 07:38 | -0.06268 | 109.36783 | 1662 ft | 188 kts | 159° |
| 2026-05-06 07:39 | -0.07441 | 109.37264 | 1422 ft | 177 kts | 159° |
| 2026-05-06 07:39 | -0.08574 | 109.37728 | 1215 ft | 174 kts | 159° |
| 2026-05-06 07:39 | -0.09674 | 109.38179 | 990 ft | 167 kts | 159° |
| 2026-05-06 07:39 | -0.10714 | 109.38605 | 747 ft | 157 kts | 159° |
| 2026-05-06 07:40 | -0.11725 | 109.39019 | 618 ft | 155 kts | 159° |
| 2026-05-06 07:40 | -0.12679 | 109.39409 | 367 ft | 146 kts | 159° |
| 2026-05-06 07:40 | -0.13605 | 109.39787 | 174 ft | 141 kts | 159° |
| 2026-05-06 07:40 | -0.14502 | 109.40149 | 31 ft | 134 kts | 158° |
| 2026-05-06 07:41 | -0.15238 | 109.40450 | 31 ft | 93 kts | 158° |
| 2026-05-06 07:41 | -0.15709 | 109.40643 | 29 ft | 57 kts | 158° |
| 2026-05-06 07:41 | -0.15959 | 109.40745 | 29 ft | 29 kts | 157° |
| 2026-05-06 07:41 | -0.16118 | 109.40809 | 29 ft | 23 kts | 159° |
| 2026-05-06 07:42 | -0.16229 | 109.40879 | 30 ft | 14 kts | 137° |
| 2026-05-06 07:42 | -0.16266 | 109.40871 | 31 ft | 7 kts | 316° |
| 2026-05-06 07:42 | -0.16236 | 109.40857 | 30 ft | 7 kts | 339° |
| 2026-05-06 07:42 | -0.16158 | 109.40826 | 30 ft | 12 kts | 338° |
| 2026-05-06 07:43 | -0.16092 | 109.40799 | 29 ft | 19 kts | 338° |
| 2026-05-06 07:43 | -0.15874 | 109.40710 | 28 ft | 32 kts | 337° |
| 2026-05-06 07:43 | -0.15725 | 109.40649 | 29 ft | 36 kts | 338° |
| 2026-05-06 07:43 | -0.15493 | 109.40555 | 29 ft | 35 kts | 338° |
| 2026-05-06 07:44 | -0.15277 | 109.40466 | 31 ft | 32 kts | 337° |
| 2026-05-06 07:44 | -0.15093 | 109.40392 | 31 ft | 27 kts | 338° |
| 2026-05-06 07:44 | -0.14934 | 109.40326 | 32 ft | 20 kts | 337° |
| 2026-05-06 07:44 | -0.14851 | 109.40348 | 32 ft | 12 kts | 65° |
| 2026-05-06 07:45 | -0.14831 | 109.40376 | 31 ft | 0 kts | 9° |
| 2026-05-06 07:45 | -0.14823 | 109.40374 | 31 ft | 4 kts | 349° |
| 2026-05-06 07:45 | -0.14789 | 109.40364 | 29 ft | 9 kts | 339° |
| 2026-05-06 07:45 | -0.14707 | 109.40329 | 31 ft | 17 kts | 338° |
| 2026-05-06 07:46 | -0.14624 | 109.40298 | 31 ft | 13 kts | 335° |
| 2026-05-06 07:46 | -0.14569 | 109.40276 | 31 ft | 1 kts | 4° |
| 2026-05-06 07:46 | -0.14566 | 109.40281 | 31 ft | 1 kts | 46° |
| 2026-05-06 07:46 | -0.14556 | 109.40295 | 29 ft | 2 kts | 60° |
| 2026-05-06 07:47 | -0.14551 | 109.40304 | 31 ft | 1 kts | 63° |
| 2026-05-06 07:47 | -0.14547 | 109.40311 | 31 ft | 1 kts | 65° |
| 2026-05-06 07:47 | -0.14545 | 109.40316 | 31 ft | 1 kts | 65° |
| 2026-05-06 07:47 | -0.14544 | 109.40318 | 31 ft | 0 kts | 65° |